Latest Weather Observations for Sydney - Observatory Hill

IDN60801

Issued at 7:02 am EST Thursday 20 June 2019 (issued every 10 minutes, with the page automatically refreshed every 10 minutes)

About weather observations | Map of weather stations | Latest weather observations for NSW | Other Formats
Station Details ID: 066062 Name: SYDNEY (OBSERVATORY HILL) Lat: -33.86 Lon: 151.21 Height: 39.0 m
Data from the previous 72 hours. | See also: Recent months at Sydney - Observatory Hill

* Apparent temperature (App Temp) for Sydney - Observatory Hill is calculated using temperature observations collected at Sydney - Observatory Hill and wind observations collected at Fort Denison, as wind observations are not currently provided for Sydney - Observatory Hill.

Date/Time
EST
Temp
°C
App
Temp
°C
Dew
Point
°C
Rel
Hum
%
Delta-T
°C
Wind Press
QNH
hPa
Press
MSL
hPa
Rain since
9am
mm
Dir  Spd
km/h
Gust
km/h
Spd
kts
Gust
kts
20/07:00am 6.5 0.3 2.4 75 1.7 W 24 - 13 - 1024.9 1024.9 0.0
20/06:30am 6.4 0.2 2.3 75 1.7 W 24 - 13 - 1024.6 1024.6 0.0
20/06:00am 6.3 0.1 2.4 76 1.6 W 24 - 13 - 1024.4 1024.4 0.0
20/05:30am 6.2 0.0 2.3 76 1.6 W 24 - 13 - 1024.1 1024.1 0.0
20/05:00am 6.3 0.1 2.2 75 1.7 W 24 - 13 - 1023.8 1023.8 0.0
20/04:30am 6.4 0.6 2.3 75 1.7 W 22 - 12 - 1023.7 1023.7 0.0
20/04:00am 6.6 1.2 2.3 74 1.8 WNW 20 - 11 - 1023.6 1023.6 0.0
20/03:30am 7.0 1.2 2.5 73 1.9 W 22 - 12 - 1023.8 1023.8 0.0
20/03:00am 7.3 1.6 2.6 72 1.9 W 22 - 12 - 1023.9 1023.9 0.0
20/02:30am 7.3 1.9 2.4 71 2.0 W 20 - 11 - 1023.5 1023.5 0.0
20/02:00am 7.4 2.1 2.9 73 1.9 W 20 - 11 - 1023.6 1023.6 0.0
20/01:30am 7.5 1.8 3.0 73 1.9 WNW 22 - 12 - 1023.7 1023.7 0.0
20/01:00am 7.6 1.5 2.9 72 2.0 WNW 24 - 13 - 1023.9 1023.9 0.0
20/12:30am 8.3 2.6 3.0 69 2.3 W 22 - 12 - 1023.9 1023.9 0.0
20/12:00am 8.6 2.9 3.0 68 2.4 W 22 - 12 - 1024.0 1024.0 0.0
 
Date/Time
EST
Temp
°C
App
Temp
°C
Dew
Point
°C
Rel
Hum
%
Delta-T
°C
Wind Press
QNH
hPa
Press
MSL
hPa
Rain since
9am
mm
Dir  Spd
km/h
Gust
km/h
Spd
kts
Gust
kts
19/11:30pm 8.7 3.2 4.1 73 2.0 WNW 22 - 12 - 1024.0 1024.0 0.0
19/11:00pm 9.2 4.2 4.4 72 2.1 WNW 20 - 11 - 1024.1 1024.1 0.0
19/10:30pm 9.8 4.8 4.8 71 2.2 W 20 - 11 - 1024.1 1024.1 0.0
19/10:00pm 11.6 9.4 5.3 65 2.9 SW 6 - 3 - 1024.1 1024.1 0.0
19/09:30pm 11.7 8.6 3.5 57 3.6 SSW 9 - 5 - 1024.0 1024.0 0.0
19/09:00pm 12.2 8.7 3.4 55 3.9 SSW 11 - 6 - 1024.1 1024.1 0.0
19/08:30pm 12.5 9.5 4.0 56 3.8 SSW 9 - 5 - 1024.0 1024.0 0.0
19/08:00pm 12.9 9.7 3.3 52 4.3 SSW 9 - 5 - 1023.9 1023.9 0.0
19/07:30pm 12.9 9.5 1.9 47 4.8 S 9 - 5 - 1023.8 1023.8 0.0
19/07:00pm 12.9 9.3 0.3 42 5.2 SSE 9 - 5 - 1023.6 1023.6 0.0
19/06:30pm 13.3 9.2 -0.3 39 5.6 SSE 11 - 6 - 1023.3 1023.3 0.0
19/06:00pm 13.2 9.7 1.2 44 5.1 SSE 9 - 5 - 1022.9 1022.9 0.0
19/05:30pm 13.6 9.6 0.3 40 5.6 S 11 - 6 - 1022.6 1022.6 0.0
19/05:00pm 13.9 10.1 1.9 44 5.2 SSE 11 - 6 - 1022.3 1022.3 0.0
19/04:30pm 14.2 9.4 2.8 46 5.1 S 17 - 9 - 1022.0 1022.0 0.0
19/04:00pm 14.9 9.8 2.8 44 5.4 S 19 - 10 - 1021.7 1021.7 0.0
19/03:30pm 15.8 10.7 2.9 42 5.8 S 19 - 10 - 1021.5 1021.5 0.0
19/03:00pm 16.7 11.5 3.4 41 6.1 S 20 - 11 - 1021.2 1021.2 0.0
19/02:30pm 16.3 11.3 3.4 42 5.9 S 19 - 10 - 1021.0 1021.0 0.0
19/02:00pm 16.5 11.4 2.9 40 6.2 S 19 - 10 - 1020.8 1020.8 0.0
19/01:30pm 17.0 11.5 4.0 42 6.1 S 22 - 12 - 1020.8 1020.8 0.0
19/01:00pm 15.8 10.5 4.8 48 5.2 S 22 - 12 - 1021.1 1021.1 0.0
19/12:30pm 15.8 11.5 5.1 49 5.1 S 17 - 9 - 1021.4 1021.4 0.0
19/12:00pm 14.6 10.4 5.7 55 4.2 SSW 17 - 9 - 1021.7 1021.7 0.0
19/11:30am 13.9 9.1 4.5 53 4.3 W 19 - 10 - 1021.9 1021.9 0.0
19/11:00am 13.3 8.4 4.2 54 4.1 W 19 - 10 - 1022.2 1022.2 0.0
19/10:30am 12.3 6.3 3.3 54 4.0 W 24 - 13 - 1022.4 1022.4 0.0
19/10:00am 11.8 5.4 3.1 55 3.8 W 26 - 14 - 1022.3 1022.3 0.0
19/09:30am 11.6 5.1 2.9 55 3.8 W 26 - 14 - 1021.9 1021.9 0.0
19/09:00am 11.0 5.0 3.1 58 3.4 W 24 - 13 - 1021.7 1021.7 0.2
19/08:30am 10.2 4.3 3.7 64 2.9 W 24 - 13 - 1021.6 1021.6 0.2
19/08:00am 9.8 4.3 4.2 68 2.5 W 22 - 12 - 1021.3 1021.3 0.2
19/07:30am 9.4 4.4 4.6 72 2.1 W 20 - 11 - 1021.0 1021.0 0.2
19/07:00am 9.2 4.2 4.4 72 2.1 W 20 - 11 - 1020.7 1020.7 0.2
19/06:30am 9.2 4.2 4.4 72 2.1 W 20 - 11 - 1020.2 1020.2 0.2
19/06:00am 9.6 4.5 4.2 69 2.4 W 20 - 11 - 1019.9 1019.9 0.2
19/05:30am 9.5 5.0 4.3 70 2.3 W 17 - 9 - 1019.2 1019.3 0.2
19/05:00am 10.0 5.2 4.4 68 2.5 W 19 - 10 - 1018.9 1019.0 0.2
19/04:30am 10.3 5.5 4.5 67 2.6 W 19 - 10 - 1018.8 1018.8 0.2
19/04:00am 10.9 5.1 4.4 64 2.9 W 24 - 13 - 1018.9 1019.0 0.2
19/03:30am 11.0 6.2 4.7 65 2.9 W 19 - 10 - 1018.8 1018.8 0.2
19/03:00am 10.9 6.5 4.6 65 2.8 W 17 - 9 - 1018.7 1018.7 0.2
19/02:30am 11.1 6.0 4.3 63 3.1 W 20 - 11 - 1018.8 1018.8 0.2
19/02:00am 11.3 6.1 3.8 60 3.3 W 20 - 11 - 1018.7 1018.7 0.2
19/01:30am 11.6 6.7 3.9 59 3.4 W 19 - 10 - 1018.7 1018.7 0.2
19/01:00am 11.8 6.6 3.8 58 3.6 W 20 - 11 - 1018.9 1019.0 0.2
19/12:30am 12.1 7.2 3.9 57 3.7 W 19 - 10 - 1018.9 1019.0 0.2
19/12:00am 12.5 7.4 4.0 56 3.8 W 20 - 11 - 1018.9 1019.0 0.2
 
Date/Time
EST
Temp
°C
App
Temp
°C
Dew
Point
°C
Rel
Hum
%
Delta-T
°C
Wind Press
QNH
hPa
Press
MSL
hPa
Rain since
9am
mm
Dir  Spd
km/h
Gust
km/h
Spd
kts
Gust
kts
18/11:30pm 12.8 7.7 4.0 55 4.0 W 20 - 11 - 1018.9 1019.0 0.2
18/11:00pm 13.3 8.2 4.2 54 4.1 W 20 - 11 - 1019.1 1019.2 0.2
18/10:30pm 13.8 8.9 4.1 52 4.4 WSW 19 - 10 - 1019.2 1019.3 0.2
18/10:00pm 14.2 9.8 4.8 53 4.4 WSW 17 - 9 - 1019.2 1019.3 0.2
18/09:30pm 14.7 10.8 5.2 53 4.5 W 15 - 8 - 1018.8 1018.8 0.2
18/09:00pm 15.4 11.2 7.4 59 4.0 W 19 - 10 - 1018.5 1018.5 0.2
18/08:30pm 15.5 12.9 9.4 67 3.2 W 13 - 7 - 1018.7 1018.7 0.2
18/08:00pm 15.6 12.7 9.7 68 3.1 W 15 - 8 - 1018.3 1018.3 0.2
18/07:30pm 15.2 13.4 10.8 75 2.3 WNW 11 - 6 - 1018.3 1018.3 0.2
18/07:00pm 14.9 13.4 10.7 76 2.2 WNW 9 - 5 - 1018.2 1018.2 0.2
18/06:30pm 15.1 13.3 10.7 75 2.3 WNW 11 - 6 - 1017.8 1017.8 0.2
18/06:00pm 15.6 14.6 10.4 71 2.7 WNW 6 - 3 - 1017.5 1017.5 0.2
18/05:30pm 16.1 14.1 10.2 68 3.1 W 11 - 6 - 1017.5 1017.5 0.2
18/05:00pm 16.5 14.1 10.1 66 3.4 W 13 - 7 - 1017.3 1017.3 0.2
18/04:30pm 16.8 13.9 9.7 63 3.7 W 15 - 8 - 1017.1 1017.1 0.2
18/04:00pm 17.1 15.9 9.5 61 4.0 SW 6 - 3 - 1016.9 1016.9 0.2
18/03:30pm 17.6 15.5 9.8 60 4.1 SW 11 - 6 - 1016.6 1016.6 0.2
18/03:00pm 18.1 16.9 9.5 57 4.5 SW 6 - 3 - 1016.7 1016.7 0.2
18/02:30pm 17.9 16.3 10.3 61 4.1 WSW 9 - 5 - 1016.7 1016.7 0.2
18/02:00pm 18.0 15.8 10.9 63 3.8 WSW 13 - 7 - 1017.0 1017.0 0.2
18/01:30pm 17.9 15.8 11.2 65 3.6 WNW 13 - 7 - 1017.1 1017.1 0.2
18/01:00pm 18.1 16.0 11.2 64 3.7 WNW 13 - 7 - 1017.5 1017.5 0.2
18/12:30pm 18.5 16.5 11.6 64 3.8 W 13 - 7 - 1017.8 1017.8 0.2
18/12:00pm 17.0 15.0 11.5 70 3.0 W 13 - 7 - 1018.4 1018.4 0.2
18/11:30am 16.0 13.3 10.5 70 2.9 W 15 - 8 - 1018.7 1018.7 0.2
18/11:00am 15.7 13.7 11.5 76 2.3 WNW 13 - 7 - 1019.1 1019.2 0.2
18/10:30am 14.2 10.9 11.0 81 1.7 W 19 - 10 - 1019.8 1019.8 0.2
18/10:00am 13.5 9.9 10.5 82 1.6 W 20 - 11 - 1020.0 1020.0 0.2
18/09:30am 12.5 8.9 10.4 87 1.1 WNW 20 - 11 - 1020.3 1020.3 0.2
18/09:00am 11.9 9.0 9.6 86 1.2 W 15 - 8 - 1020.2 1020.2 33.6
18/08:30am 11.7 7.8 9.3 85 1.2 W 20 - 11 - 1020.0 1020.0 33.0
18/08:00am 11.8 8.4 9.0 83 1.4 WNW 17 - 9 - 1019.8 1019.8 32.2
18/07:30am 11.5 7.7 9.1 85 1.2 W 19 - 10 - 1019.4 1019.5 32.2
18/07:00am 11.2 7.7 8.8 85 1.2 WNW 17 - 9 - 1019.4 1019.5 32.2
18/06:30am 11.2 7.4 8.9 86 1.1 WNW 19 - 10 - 1019.3 1019.4 32.2
18/06:00am 11.2 7.1 8.8 85 1.2 WNW 20 - 11 - 1019.1 1019.2 32.2
18/05:30am 11.4 7.4 9.0 85 1.2 W 20 - 11 - 1019.1 1019.2 32.2
18/05:00am 11.5 7.5 9.1 85 1.2 WNW 20 - 11 - 1019.0 1019.1 32.2
18/04:30am 11.5 7.5 9.1 85 1.2 W 20 - 11 - 1019.1 1019.2 32.2
18/04:00am 11.7 7.9 9.1 84 1.3 W 19 - 10 - 1019.1 1019.2 32.2
18/03:30am 11.7 7.7 9.1 84 1.3 WNW 20 - 11 - 1019.2 1019.3 32.2
18/03:00am 11.8 7.0 9.0 83 1.4 WNW 24 - 13 - 1019.4 1019.5 32.2
18/02:30am 11.9 7.9 9.1 83 1.4 WNW 20 - 11 - 1019.6 1019.7 32.2
18/02:00am 12.0 7.7 9.4 84 1.3 WNW 22 - 12 - 1019.8 1019.8 32.2
18/01:30am 11.9 7.9 9.1 83 1.4 W 20 - 11 - 1019.6 1019.7 32.2
18/01:00am 11.9 7.5 9.1 83 1.4 WNW 22 - 12 - 1019.9 1019.9 32.2
18/12:30am 12.0 7.7 9.2 83 1.4 WNW 22 - 12 - 1020.0 1020.0 32.2
18/12:00am 12.0 7.7 9.2 83 1.4 WNW 22 - 12 - 1020.2 1020.2 32.2
 
Date/Time
EST
Temp
°C
App
Temp
°C
Dew
Point
°C
Rel
Hum
%
Delta-T
°C
Wind Press
QNH
hPa
Press
MSL
hPa
Rain since
9am
mm
Dir  Spd
km/h
Gust
km/h
Spd
kts
Gust
kts
17/11:30pm 12.0 8.0 9.2 83 1.4 W 20 - 11 - 1020.4 1020.4 32.2
17/11:00pm 12.1 8.2 9.5 84 1.3 W 20 - 11 - 1020.7 1020.7 32.2
17/10:30pm 12.3 7.7 9.5 83 1.4 W 24 - 13 - 1020.9 1020.9 32.2
17/10:00pm 12.5 8.7 9.7 83 1.4 W 20 - 11 - 1021.0 1021.0 32.0
17/09:30pm 12.7 8.9 9.7 82 1.5 W 20 - 11 - 1021.1 1021.1 32.0
17/09:00pm 12.9 9.1 9.9 82 1.5 W 20 - 11 - 1021.0 1021.0 32.0
17/08:30pm 13.3 9.6 10.3 82 1.6 W 20 - 11 - 1021.0 1021.0 31.6
17/08:00pm 13.5 10.8 10.5 82 1.6 SW 15 - 8 - 1020.8 1020.8 31.6
17/07:30pm 13.7 11.0 10.3 80 1.8 WSW 15 - 8 - 1020.9 1020.9 31.6
17/07:00pm 13.6 11.0 10.6 82 1.6 WSW 15 - 8 - 1020.5 1020.5 31.6
17/06:30pm 13.6 10.1 11.0 84 1.4 SW 20 - 11 - 1020.3 1020.3 31.6
17/06:00pm 13.7 10.5 11.2 85 1.3 SW 19 - 10 - 1020.3 1020.3 31.6
17/05:30pm 13.7 9.9 11.2 85 1.3 SSW 22 - 12 - 1020.0 1020.0 31.6
17/05:00pm 13.8 9.7 11.5 86 1.2 SW 24 - 13 - 1019.6 1019.7 31.4
17/04:30pm 14.0 10.8 11.9 87 1.1 SW 20 - 11 - 1019.3 1019.4 31.2
17/04:00pm 14.1 10.2 12.0 87 1.1 SW 24 - 13 - 1019.1 1019.2 30.8
17/03:30pm 14.0 11.0 11.9 87 1.1 SW 19 - 10 - 1019.0 1019.1 30.2
17/03:00pm 13.8 10.2 11.8 88 1.1 SW 22 - 12 - 1018.8 1018.8 30.2
17/02:30pm 14.0 10.4 11.9 87 1.1 SW 22 - 12 - 1018.7 1018.7 26.8
17/02:00pm 14.2 11.1 12.1 87 1.1 SSW 20 - 11 - 1018.9 1019.0 25.8
17/01:30pm 14.7 10.9 12.4 86 1.3 SSW 24 - 13 - 1018.7 1018.7 24.2
17/01:00pm 14.7 12.1 13.1 90 0.9 SSW 19 - 10 - 1018.6 1018.6 24.2
17/12:30pm 13.5 11.6 11.7 89 1.0 S 13 - 7 - 1019.3 1019.4 23.6
17/12:00pm 13.2 10.2 10.7 85 1.3 SSW 17 - 9 - 1019.6 1019.7 16.0
17/11:30am 14.0 11.7 11.7 86 1.2 SSW 15 - 8 - 1019.3 1019.4 1.8
17/11:00am 13.0 11.7 11.1 88 1.0 WNW 9 - 5 - 1019.8 1019.8 1.8
17/10:30am 12.9 11.1 11.0 88 1.0 NNE 11 - 6 - 1020.4 1020.4 1.8
17/10:00am 12.2 8.0 9.9 86 1.2 W 22 - 12 - 1020.1 1020.1 0.8
17/09:30am 12.4 8.3 10.1 86 1.2 W 22 - 12 - 1020.2 1020.2 0.0
17/09:00am 11.8 9.2 9.4 85 1.2 WSW 13 - 7 - 1020.2 1020.2 4.0
17/08:30am 11.7 7.0 9.1 84 1.3 W 24 - 13 - 1019.8 1019.8 3.4
17/08:00am 11.6 7.2 8.8 83 1.4 W 22 - 12 - 1019.9 1019.9 3.0
17/07:30am 11.5 6.7 8.9 84 1.3 W 24 - 13 - 1019.6 1019.7 3.0

Other formats

Comma delimited format used in spreadsheet applications
http://www.bom.gov.au/fwo/IDN60801/IDN60801.94768.axf

JavaScript Object Notation format (JSON) in row-major order
http://www.bom.gov.au/fwo/IDN60801/IDN60801.94768.json

Data quality

Most of these data are generated automatically and are frequently updated. Quality checks on data are not normally performed. It is possible for incorrect values to appear. Refer to information at About Latest Weather Observations and please check the disclaimer before using these data.